Time;durP1;ratioP1;P1;durP2;ratioP2;P2;SDS_P1;SDS_P2;PMS_P1;PMS_P2;Temp;Humidity;BMP_temperature;BMP_pressure;BME280_temperature;BME280_humidity;BME280_pressure;Samples;Min_cycle;Max_cycle;Signal;HPM_P1;HPM_P2
2021/04/06 00:02:55;;;;;;;5.13;2.33;;;14.80;43.10;;;;;;6199177;28;20087;-78
2021/04/06 00:06:29;;;;;;;;;;;;;;;;;;;;;
2021/04/06 00:09:57;;;;;;;6.53;2.85;;;14.70;43.40;;;;;;6192568;28;20056;-78
2021/04/06 00:13:31;;;;;;;3.33;1.83;;;14.60;43.50;;;;;;6034158;29;20482;-79
2021/04/06 00:17:09;;;;;;;5.63;1.70;;;14.50;43.50;;;;;;6115953;29;20043;-78
2021/04/06 00:20:56;;;;;;;2.55;1.80;;;14.50;43.50;;;;;;5984230;29;20122;-78
2021/04/06 00:24:44;;;;;;;2.65;1.40;;;14.40;43.60;;;;;;5941513;29;20042;-79
2021/04/06 00:27:52;;;;;;;3.67;1.92;;;14.40;43.70;;;;;;5984836;29;20038;-77
2021/04/06 00:30:54;;;;;;;2.47;1.45;;;14.30;43.90;;;;;;6033391;29;20048;-79
2021/04/06 00:33:56;;;;;;;3.55;1.70;;;14.20;44.10;;;;;;6041738;29;20469;-78
2021/04/06 00:37:03;;;;;;;2.97;1.67;;;14.20;44.30;;;;;;6035070;29;20104;-78
2021/04/06 00:40:08;;;;;;;2.03;1.00;;;14.10;44.60;;;;;;6031633;29;20390;-78
2021/04/06 00:43:11;;;;;;;4.20;1.63;;;14.00;44.80;;;;;;6034461;29;20117;-78
2021/04/06 00:46:15;;;;;;;6.60;1.95;;;13.90;45.00;;;;;;6033655;29;20049;-77
2021/04/06 00:49:17;;;;;;;2.58;1.27;;;13.80;45.20;;;;;;6088240;28;20037;-78
2021/04/06 00:52:18;;;;;;;4.15;1.70;;;13.70;45.40;;;;;;6266922;28;20028;-78
2021/04/06 00:55:20;;;;;;;1.98;1.10;;;13.60;45.80;;;;;;6299779;28;20051;-77
2021/04/06 00:58:25;;;;;;;3.40;1.50;;;13.50;45.90;;;;;;6265267;28;20476;-78
2021/04/06 01:09:55;;;;;;;1.27;0.80;;;13.10;46.80;;;;;;6246056;28;20060;-78
2021/04/06 01:12:57;;;;;;;4.80;1.05;;;13.10;46.90;;;;;;6245411;28;20037;-78
2021/04/06 01:15:58;;;;;;;2.35;0.98;;;12.90;47.30;;;;;;6246504;28;20030;-78
2021/04/06 01:19:00;;;;;;;2.53;1.40;;;12.80;47.20;;;;;;6229377;28;20348;-78
2021/04/06 01:22:05;;;;;;;1.73;1.20;;;12.60;47.40;;;;;;6214955;28;20044;-78
2021/04/06 01:25:06;;;;;;;1.65;0.80;;;12.50;47.60;;;;;;6224691;28;20038;-78
2021/04/06 01:28:10;;;;;;;1.35;0.77;;;12.40;47.40;;;;;;6231090;28;20112;-79
2021/04/06 01:31:12;;;;;;;1.50;0.98;;;12.30;47.50;;;;;;6228618;28;20048;-77
2021/04/06 01:34:13;;;;;;;1.20;0.95;;;12.20;47.30;;;;;;6247299;28;20444;-79
2021/04/06 01:37:19;;;;;;;2.03;1.27;;;12.10;47.20;;;;;;6214081;28;20051;-78
2021/04/06 01:40:20;;;;;;;9.70;1.20;;;12.00;47.20;;;;;;6228704;28;20036;-78
2021/04/06 01:43:25;;;;;;;1.15;0.70;;;11.90;47.20;;;;;;6203861;28;20127;-79
2021/04/06 01:46:40;;;;;;;2.22;0.95;;;11.90;47.30;;;;;;6208763;28;20034;-78
2021/04/06 01:49:42;;;;;;;2.60;1.35;;;11.80;47.90;;;;;;6229778;28;20051;-78
2021/04/06 01:52:49;;;;;;;1.83;0.90;;;11.70;47.20;;;;;;6250997;28;20037;-78
2021/04/06 01:56:06;;;;;;;2.17;1.15;;;11.70;47.30;;;;;;6272426;28;20044;-78
2021/04/06 01:59:11;;;;;;;2.42;1.20;;;11.70;47.30;;;;;;6260895;28;20041;-78
2021/04/06 02:02:13;;;;;;;2.22;1.17;;;11.60;47.30;;;;;;6255390;28;20098;-78
2021/04/06 02:05:15;;;;;;;3.58;1.77;;;11.50;47.30;;;;;;6240570;28;20038;-79
2021/04/06 02:08:18;;;;;;;1.75;0.98;;;11.50;47.40;;;;;;6253562;28;20045;-79
2021/04/06 02:11:23;;;;;;;1.92;1.33;;;11.40;47.50;;;;;;6231336;28;20356;-76
2021/04/06 02:14:25;;;;;;;0.77;0.68;;;11.40;47.50;;;;;;6255314;28;20043;-77
2021/04/06 02:17:26;;;;;;;1.95;1.15;;;11.20;47.80;;;;;;6223922;28;20148;-77
2021/04/06 02:20:27;;;;;;;0.98;0.65;;;11.20;47.90;;;;;;6229533;28;20049;-77
2021/04/06 02:23:37;;;;;;;2.67;1.20;;;11.10;48.10;;;;;;6255136;28;20036;-79
2021/04/06 02:26:38;;;;;;;3.13;1.17;;;11.00;48.10;;;;;;6248888;28;20049;-79
2021/04/06 02:29:41;;;;;;;1.95;0.85;;;11.00;48.00;;;;;;6256410;28;20033;-78
2021/04/06 02:32:42;;;;;;;1.27;0.93;;;10.90;48.10;;;;;;6256455;28;20048;-77
2021/04/06 02:36:12;;;;;;;2.03;1.02;;;10.90;48.00;;;;;;6246723;28;20049;-78
2021/04/06 02:39:14;;;;;;;0.60;0.50;;;10.80;48.00;;;;;;6138114;29;20564;-78
2021/04/06 02:42:23;;;;;;;0.45;0.45;;;10.80;47.80;;;;;;6125135;29;20031;-78
2021/04/06 02:45:31;;;;;;;3.58;0.85;;;10.70;47.60;;;;;;6125108;29;20495;-78
2021/04/06 02:48:33;;;;;;;2.80;0.93;;;10.60;47.30;;;;;;6119359;29;20071;-77
2021/04/06 02:51:34;;;;;;;0.52;0.52;;;10.60;47.20;;;;;;6121224;29;20486;-78
2021/04/06 02:54:36;;;;;;;1.30;0.50;;;10.60;46.90;;;;;;6124847;29;20036;-78
2021/04/06 02:57:48;;;;;;;1.88;1.10;;;10.60;46.70;;;;;;6124405;29;20050;-79
2021/04/06 03:00:49;;;;;;;0.70;0.65;;;10.60;46.70;;;;;;6115707;29;20124;-77
2021/04/06 03:03:50;;;;;;;0.70;0.47;;;10.50;46.40;;;;;;6137827;29;20035;-79
2021/04/06 03:06:54;;;;;;;1.75;0.70;;;10.50;46.20;;;;;;6129409;29;20497;-78
2021/04/06 03:09:59;;;;;;;0.32;0.32;;;10.50;46.10;;;;;;6124626;29;20040;-77
2021/04/06 03:13:12;;;;;;;0.85;0.60;;;10.40;45.90;;;;;;6105569;29;20130;-77
2021/04/06 03:16:13;;;;;;;6.40;1.00;;;10.30;46.00;;;;;;6222419;28;20491;-77
2021/04/06 03:19:13;;;;;;;0.35;0.30;;;10.30;45.90;;;;;;6260982;28;20033;-78
2021/04/06 03:22:16;;;;;;;1.55;0.68;;;10.20;45.90;;;;;;6259051;28;20034;-78
2021/04/06 03:25:17;;;;;;;1.45;0.65;;;10.10;45.90;;;;;;6237494;28;20071;-78
2021/04/06 03:28:18;;;;;;;0.95;0.60;;;10.00;45.90;;;;;;6229320;28;20487;-79
2021/04/06 03:31:20;;;;;;;1.73;0.52;;;10.00;46.10;;;;;;6245874;28;20025;-78
2021/04/06 03:34:23;;;;;;;2.72;1.27;;;9.80;46.20;;;;;;6220367;28;20049;-78
2021/04/06 03:37:24;;;;;;;2.55;0.80;;;9.80;46.10;;;;;;6226700;28;20367;-77
2021/04/06 03:40:33;;;;;;;1.10;0.50;;;9.80;46.00;;;;;;6229655;28;20045;-76
2021/04/06 03:43:40;;;;;;;;;;;9.80;46.00;;;;;;6231191;28;20072;-76
2021/04/06 03:46:42;;;;;;;2.13;0.40;;;9.80;45.80;;;;;;6242122;28;19935;-77
2021/04/06 03:49:48;;;;;;;1.85;0.90;;;9.80;45.70;;;;;;6248522;28;20091;-78
2021/04/06 03:53:02;;;;;;;0.40;0.40;;;9.80;45.80;;;;;;6268314;28;20052;-78
2021/04/06 03:56:05;;;;;;;3.75;1.15;;;9.70;45.70;;;;;;6253010;28;20063;-77
2021/04/06 03:59:09;;;;;;;1.70;0.68;;;9.80;45.60;;;;;;6234916;28;20068;-79
2021/04/06 04:02:10;;;;;;;3.83;0.75;;;9.70;45.50;;;;;;6255322;28;20524;-78
2021/04/06 04:05:11;;;;;;;4.15;0.50;;;9.70;45.50;;;;;;6264909;28;20029;-78
2021/04/06 04:08:12;;;;;;;3.72;1.40;;;9.70;45.60;;;;;;6259374;28;20351;-76
2021/04/06 04:11:13;;;;;;;2.42;0.70;;;9.60;45.60;;;;;;6252633;28;20055;-78
2021/04/06 04:14:14;;;;;;;0.82;0.60;;;9.60;46.20;;;;;;6250560;28;20382;-78
2021/04/06 04:17:15;;;;;;;3.45;1.33;;;9.60;45.60;;;;;;6257904;28;20041;-78
2021/04/06 04:20:18;;;;;;;5.70;0.60;;;9.50;45.60;;;;;;6246714;28;20036;-76
2021/04/06 04:23:19;;;;;;;3.47;0.75;;;9.50;45.70;;;;;;6254844;28;20033;-76
2021/04/06 04:26:20;;;;;;;4.00;0.65;;;9.40;45.90;;;;;;6256901;28;20471;-75
2021/04/06 04:29:21;;;;;;;2.42;1.10;;;9.40;46.20;;;;;;6259549;28;20534;-76
2021/04/06 04:32:22;;;;;;;1.20;0.55;;;9.30;46.40;;;;;;6246168;28;20037;-76
2021/04/06 04:35:22;;;;;;;1.17;0.55;;;9.30;46.40;;;;;;6258295;28;20097;-78
2021/04/06 04:38:24;;;;;;;1.27;0.70;;;9.30;46.40;;;;;;6256386;28;20410;-78
2021/04/06 04:41:25;;;;;;;3.72;1.10;;;9.20;46.80;;;;;;6251133;28;20045;-78
2021/04/06 04:44:26;;;;;;;2.00;1.08;;;9.20;46.70;;;;;;6252690;28;20095;-77
2021/04/06 04:47:27;;;;;;;1.13;0.73;;;9.20;46.80;;;;;;6250769;28;20044;-78
2021/04/06 04:50:35;;;;;;;0.75;0.60;;;9.10;47.00;;;;;;6254489;28;20057;-78
2021/04/06 04:53:35;;;;;;;2.07;1.00;;;9.10;47.40;;;;;;6258245;28;20037;-77
2021/04/06 04:56:36;;;;;;;4.40;1.00;;;9.10;47.20;;;;;;6275107;28;20333;-77
2021/04/06 04:59:37;;;;;;;8.25;1.17;;;9.10;47.40;;;;;;6260677;28;20033;-77
2021/04/06 05:02:39;;;;;;;1.10;0.70;;;9.10;47.10;;;;;;6249711;28;20472;-77
2021/04/06 05:05:40;;;;;;;6.75;1.15;;;9.10;46.90;;;;;;6227732;28;20045;-77
2021/04/06 05:08:40;;;;;;;5.50;1.08;;;9.00;46.60;;;;;;6233095;28;20134;-77
2021/04/06 05:11:41;;;;;;;0.93;0.90;;;9.00;46.50;;;;;;6215254;28;20371;-78
2021/04/06 05:14:46;;;;;;;1.98;0.55;;;8.90;46.20;;;;;;6240907;28;20045;-78
2021/04/06 05:17:47;;;;;;;3.80;1.63;;;8.90;46.00;;;;;;6215958;28;20042;-76
2021/04/06 05:20:48;;;;;;;3.10;1.13;;;8.80;46.10;;;;;;6214724;28;20042;-77
2021/04/06 05:23:48;;;;;;;4.72;0.80;;;8.80;46.20;;;;;;6250121;28;20080;-78
2021/04/06 05:26:50;;;;;;;1.67;0.50;;;8.80;46.10;;;;;;6229891;28;20049;-77
2021/04/06 05:29:51;;;;;;;8.68;1.17;;;8.80;45.70;;;;;;6234117;28;20037;-76
2021/04/06 05:32:52;;;;;;;1.92;0.90;;;8.80;45.50;;;;;;6218200;28;20026;-77
2021/04/06 05:35:53;;;;;;;3.90;0.93;;;8.70;45.10;;;;;;6233407;28;20086;-79
2021/04/06 05:38:54;;;;;;;6.13;1.45;;;8.70;45.00;;;;;;6239336;28;20494;-78
2021/04/06 05:41:55;;;;;;;7.57;1.70;;;8.60;44.70;;;;;;6233457;28;20038;-78
2021/04/06 05:44:56;;;;;;;3.53;1.33;;;8.60;44.50;;;;;;6249759;28;20042;-77
2021/04/06 05:48:04;;;;;;;2.08;1.23;;;8.60;44.40;;;;;;6233323;28;20041;-78
2021/04/06 05:51:06;;;;;;;2.20;1.00;;;8.50;44.20;;;;;;6233159;28;20048;-77
2021/04/06 05:54:10;;;;;;;10.05;1.35;;;8.50;44.00;;;;;;6232770;28;20508;-78
2021/04/06 05:57:11;;;;;;;7.38;1.23;;;8.40;43.80;;;;;;6249764;28;20041;-77
2021/04/06 06:00:20;;;;;;;2.13;1.08;;;8.40;43.80;;;;;;6221441;28;20029;-77
2021/04/06 06:03:21;;;;;;;2.95;0.82;;;8.30;43.80;;;;;;6240617;28;20064;-77
2021/04/06 06:06:23;;;;;;;4.68;0.52;;;8.30;43.70;;;;;;6240557;28;20044;-79
2021/04/06 06:09:29;;;;;;;0.90;0.60;;;8.20;43.70;;;;;;6230933;28;20055;-77
2021/04/06 06:12:30;;;;;;;2.08;0.73;;;8.20;43.70;;;;;;6233098;28;20357;-78
2021/04/06 06:15:32;;;;;;;2.80;1.00;;;8.10;43.80;;;;;;6238652;28;20526;-78
2021/04/06 06:18:33;;;;;;;1.42;0.70;;;8.00;44.00;;;;;;6257103;28;20055;-77
2021/04/06 06:21:39;;;;;;;5.50;1.17;;;7.90;44.60;;;;;;6238747;28;20060;-77
2021/04/06 06:24:45;;;;;;;10.00;2.22;;;7.90;44.90;;;;;;6257467;28;20450;-77
2021/04/06 06:27:48;;;;;;;4.20;1.00;;;7.80;45.20;;;;;;6240681;28;20045;-78
2021/04/06 06:30:49;;;;;;;3.47;0.95;;;7.80;45.50;;;;;;6258439;28;20033;-78
2021/04/06 06:33:50;;;;;;;5.30;1.42;;;7.70;45.60;;;;;;6257087;28;20029;-78
2021/04/06 06:37:13;;;;;;;2.40;1.70;;;7.70;45.70;;;;;;6234774;28;20044;-78
2021/04/06 06:40:14;;;;;;;7.78;1.17;;;7.70;45.70;;;;;;6247421;28;20029;-78
2021/04/06 06:43:18;;;;;;;2.80;1.42;;;7.80;46.00;;;;;;6249341;28;20126;-79
2021/04/06 06:46:25;;;;;;;5.30;1.55;;;7.80;46.00;;;;;;6232351;28;20044;-79
2021/04/06 06:49:35;;;;;;;2.87;1.50;;;7.80;46.10;;;;;;6262364;28;20032;-77
2021/04/06 06:52:37;;;;;;;3.08;0.90;;;7.90;46.10;;;;;;6256092;28;20120;-78
2021/04/06 06:55:39;;;;;;;3.50;1.00;;;7.90;46.10;;;;;;6230054;28;20048;-78
2021/04/06 06:58:42;;;;;;;4.65;1.60;;;8.00;46.10;;;;;;6215647;28;20076;-77
2021/04/06 07:01:43;;;;;;;2.40;1.17;;;7.90;46.20;;;;;;6215999;28;20049;-78
2021/04/06 07:04:44;;;;;;;3.85;2.03;;;7.90;46.40;;;;;;6249627;28;20451;-78
2021/04/06 07:08:03;;;;;;;5.60;1.00;;;7.90;46.50;;;;;;6231687;28;20077;-78
2021/04/06 07:11:04;;;;;;;3.40;1.35;;;7.90;46.70;;;;;;6225955;28;20044;-77
2021/04/06 07:14:06;;;;;;;2.58;1.33;;;8.00;46.70;;;;;;6233779;28;20057;-77
2021/04/06 07:17:09;;;;;;;0.80;0.68;;;7.90;46.80;;;;;;6225412;28;20030;-78
2021/04/06 07:20:16;;;;;;;7.93;1.55;;;8.00;47.10;;;;;;6247610;28;20033;-77
2021/04/06 07:23:42;;;;;;;1.65;1.25;;;8.00;47.10;;;;;;6251783;28;20370;-77
2021/04/06 07:26:43;;;;;;;12.20;1.63;;;8.00;47.70;;;;;;6273847;28;20076;-77
2021/04/06 07:29:44;;;;;;;5.13;1.55;;;8.10;47.20;;;;;;6228485;28;20522;-79
2021/04/06 07:32:47;;;;;;;6.03;1.58;;;8.10;47.10;;;;;;6261657;28;20041;-79
2021/04/06 07:35:48;;;;;;;2.47;1.98;;;8.10;47.00;;;;;;6267905;28;20424;-77
2021/04/06 07:38:55;;;;;;;3.00;1.63;;;8.20;46.90;;;;;;6260946;28;20056;-80
2021/04/06 07:41:56;;;;;;;2.90;1.25;;;8.20;46.80;;;;;;6241542;28;20171;-77
2021/04/06 07:44:57;;;;;;;5.35;1.58;;;8.20;46.80;;;;;;6252414;28;20460;-79
2021/04/06 07:47:58;;;;;;;4.40;1.80;;;8.30;46.70;;;;;;6256785;28;20096;-78
2021/04/06 07:51:14;;;;;;;2.28;1.65;;;8.40;46.50;;;;;;6253827;28;20460;-79
2021/04/06 07:54:17;;;;;;;3.90;1.88;;;8.30;46.20;;;;;;6237058;28;20037;-78
2021/04/06 07:57:18;;;;;;;7.60;1.70;;;8.30;46.40;;;;;;6271753;28;20080;-79
2021/04/06 08:00:48;;;;;;;1.63;0.90;;;8.20;46.40;;;;;;6241049;28;20060;-79
2021/04/06 08:03:56;;;;;;;6.97;2.13;;;8.20;46.00;;;;;;6260564;28;20483;-79
2021/04/06 08:06:57;;;;;;;;;;;8.30;45.90;;;;;;6233623;28;20502;-78
2021/04/06 08:10:13;;;;;;;5.18;1.58;;;8.30;45.70;;;;;;6256494;28;19928;-79
2021/04/06 08:13:16;;;;;;;6.53;1.55;;;8.40;45.50;;;;;;6251236;28;20064;-78
2021/04/06 08:16:20;;;;;;;8.32;1.95;;;8.50;45.10;;;;;;6252921;28;20068;-78
2021/04/06 08:19:29;;;;;;;8.32;1.45;;;8.50;44.90;;;;;;6234488;28;20045;-79
2021/04/06 08:22:43;;;;;;;3.47;1.25;;;8.60;44.50;;;;;;6233353;28;20130;-80
2021/04/06 08:25:47;;;;;;;15.40;2.03;;;8.70;44.20;;;;;;6249519;28;20048;-78
2021/04/06 08:28:49;;;;;;;5.63;1.90;;;8.70;43.90;;;;;;6212377;28;20046;-79
2021/04/06 08:32:13;;;;;;;2.75;1.90;;;8.80;43.80;;;;;;6234936;28;20059;-80
2021/04/06 08:35:14;;;;;;;5.75;2.13;;;9.00;43.20;;;;;;6235013;28;20109;-78
2021/04/06 08:38:28;;;;;;;11.20;1.85;;;9.10;42.70;;;;;;6233711;28;20099;-78
2021/04/06 08:41:35;;;;;;;7.40;2.33;;;9.20;42.40;;;;;;6237562;28;20422;-79
2021/04/06 08:44:37;;;;;;;6.28;2.15;;;9.40;42.00;;;;;;6239960;28;20037;-79
2021/04/06 08:47:46;;;;;;;1.88;1.23;;;9.50;41.20;;;;;;6252389;28;20460;-80
2021/04/06 08:50:47;;;;;;;9.77;1.70;;;9.50;40.30;;;;;;6232631;28;20029;-80
2021/04/06 08:53:51;;;;;;;2.67;1.27;;;9.50;40.10;;;;;;6257892;28;20036;-78
2021/04/06 08:56:55;;;;;;;4.45;1.30;;;9.60;40.10;;;;;;6241036;28;20033;-79
2021/04/06 08:59:56;;;;;;;10.00;1.70;;;9.70;39.30;;;;;;6241272;28;20032;-79
2021/04/06 09:03:06;;;;;;;6.20;1.55;;;9.70;38.10;;;;;;6256912;28;20044;-79
2021/04/06 09:06:13;;;;;;;2.97;1.10;;;9.70;37.60;;;;;;6256441;28;20045;-78
2021/04/06 09:09:17;;;;;;;2.55;0.85;;;9.80;37.10;;;;;;6269147;28;20076;-79
2021/04/06 09:12:19;;;;;;;0.70;0.63;;;9.90;37.40;;;;;;6222924;28;20061;-78
2021/04/06 09:15:22;;;;;;;6.72;1.27;;;9.90;38.20;;;;;;6233187;28;20045;-79
2021/04/06 09:18:24;;;;;;;2.90;1.40;;;9.90;38.50;;;;;;6255091;28;20036;-78
2021/04/06 09:21:29;;;;;;;2.88;1.38;;;10.00;38.70;;;;;;6246152;28;20034;-79
2021/04/06 09:24:30;;;;;;;8.57;1.67;;;10.10;38.70;;;;;;6197910;28;20373;-78
2021/04/06 09:27:31;;;;;;;4.20;1.15;;;10.20;38.00;;;;;;6231480;28;20053;-79
2021/04/06 09:30:35;;;;;;;9.45;2.03;;;10.20;37.40;;;;;;6227526;28;20041;-79
2021/04/06 09:33:38;;;;;;;7.10;1.80;;;10.20;37.00;;;;;;6274115;28;20059;-79
2021/04/06 09:36:42;;;;;;;4.30;1.20;;;10.30;37.30;;;;;;6231825;28;20117;-79
2021/04/06 09:39:46;;;;;;;2.30;1.13;;;10.40;37.30;;;;;;6242355;28;20112;-79
2021/04/06 09:42:48;;;;;;;1.50;1.27;;;10.60;36.80;;;;;;6216033;28;20490;-79
2021/04/06 09:45:50;;;;;;;3.63;1.23;;;10.50;36.50;;;;;;6237436;28;20471;-79
2021/04/06 09:48:54;;;;;;;3.83;1.58;;;10.50;36.50;;;;;;6241190;28;20033;-79
2021/04/06 09:51:55;;;;;;;6.70;1.65;;;10.60;36.50;;;;;;6256369;28;20079;-80
2021/04/06 09:55:07;;;;;;;7.07;1.77;;;10.70;36.40;;;;;;6239939;28;20037;-78
2021/04/06 09:58:08;;;;;;;3.08;1.60;;;10.80;35.90;;;;;;6238150;28;20055;-78
2021/04/06 10:01:18;;;;;;;2.78;1.50;;;10.90;35.60;;;;;;6250118;28;20056;-78
2021/04/06 10:04:37;;;;;;;3.13;1.45;;;11.00;35.50;;;;;;6233514;28;20044;-78
2021/04/06 10:07:46;;;;;;;5.68;1.40;;;11.00;35.10;;;;;;6272386;28;20356;-78
2021/04/06 10:10:48;;;;;;;4.07;1.15;;;11.20;34.20;;;;;;6229949;28;20423;-78
2021/04/06 10:13:50;;;;;;;2.90;1.38;;;11.20;33.60;;;;;;6216159;28;20119;-78
2021/04/06 10:17:21;;;;;;;3.20;1.70;;;11.30;33.70;;;;;;6264792;28;20464;-78
2021/04/06 10:20:34;;;;;;;4.38;1.40;;;11.30;33.70;;;;;;6213042;28;20033;-77
2021/04/06 10:23:35;;;;;;;1.98;0.93;;;11.40;33.60;;;;;;6244333;28;20037;-78
2021/04/06 10:26:36;;;;;;;3.08;1.00;;;11.70;33.40;;;;;;6247349;28;20156;-78
2021/04/06 10:29:39;;;;;;;3.97;1.35;;;12.00;32.70;;;;;;6254899;28;20036;-77
2021/04/06 10:32:45;;;;;;;3.95;1.40;;;12.10;31.30;;;;;;6273761;28;20033;-77
2021/04/06 10:35:48;;;;;;;4.55;1.30;;;12.20;30.50;;;;;;6224609;28;20111;-77
2021/04/06 10:39:01;;;;;;;5.03;1.60;;;12.30;30.10;;;;;;6240919;28;20033;-76
2021/04/06 10:42:05;;;;;;;3.50;0.75;;;12.40;29.80;;;;;;6259991;28;20034;-78
2021/04/06 10:45:08;;;;;;;1.02;0.77;;;12.50;28.90;;;;;;6260950;28;20108;-78
2021/04/06 10:48:18;;;;;;;1.27;0.70;;;12.40;27.90;;;;;;6258265;28;20025;-78
2021/04/06 10:51:22;;;;;;;3.65;1.33;;;12.40;27.80;;;;;;6240590;28;20040;-77
2021/04/06 10:54:24;;;;;;;3.83;1.30;;;12.40;27.50;;;;;;6240540;28;20024;-77
2021/04/06 10:57:31;;;;;;;0.82;0.70;;;12.50;27.90;;;;;;6273649;28;20029;-77
2021/04/06 11:00:34;;;;;;;1.13;0.80;;;12.60;27.70;;;;;;6232660;28;20041;-77
2021/04/06 11:03:44;;;;;;;1.55;1.10;;;12.80;27.30;;;;;;6249295;28;20045;-77
2021/04/06 11:06:59;;;;;;;4.13;1.40;;;12.90;27.10;;;;;;6256097;28;20127;-78
2021/04/06 11:10:08;;;;;;;1.25;1.05;;;13.10;27.30;;;;;;6253049;28;20046;-77
2021/04/06 11:13:09;;;;;;;1.58;0.82;;;13.30;26.40;;;;;;6248672;28;20365;-78
2021/04/06 11:16:12;;;;;;;1.83;1.05;;;13.30;25.70;;;;;;6271815;28;20098;-77
2021/04/06 11:19:16;;;;;;;14.40;1.25;;;13.20;25.20;;;;;;6222982;28;20056;-80
2021/04/06 11:22:19;;;;;;;1.08;0.93;;;13.10;25.30;;;;;;6231848;28;20030;-79
2021/04/06 11:25:20;;;;;;;4.82;1.10;;;13.20;25.10;;;;;;6250159;28;20106;-77
2021/04/06 11:28:21;;;;;;;1.50;0.75;;;13.30;25.40;;;;;;6268030;28;20071;-78
2021/04/06 11:31:23;;;;;;;0.70;0.70;;;13.60;25.00;;;;;;6274165;28;20029;-78
2021/04/06 11:34:24;;;;;;;4.25;0.80;;;13.90;24.80;;;;;;6262475;28;20075;-78
2021/04/06 11:37:25;;;;;;;0.85;0.60;;;14.20;24.40;;;;;;6269059;28;20040;-77
2021/04/06 11:40:26;;;;;;;4.47;0.80;;;14.50;23.20;;;;;;6259398;28;20097;-78
2021/04/06 11:43:27;;;;;;;0.82;0.60;;;14.70;22.70;;;;;;6234763;28;20038;-77
2021/04/06 11:46:28;;;;;;;5.90;1.00;;;15.00;22.70;;;;;;6252251;28;20052;-77
2021/04/06 11:49:31;;;;;;;1.88;0.80;;;15.20;21.90;;;;;;6261281;28;20133;-78
2021/04/06 11:52:32;;;;;;;1.90;0.73;;;15.40;21.80;;;;;;6270057;28;20040;-79
2021/04/06 11:55:33;;;;;;;1.70;0.90;;;15.70;21.80;;;;;;6258018;28;20030;-78
2021/04/06 11:58:34;;;;;;;1.23;0.47;;;16.10;20.80;;;;;;6274187;28;20464;-78
2021/04/06 12:01:35;;;;;;;2.28;1.10;;;16.40;20.40;;;;;;6251346;28;20041;-78
2021/04/06 12:04:36;;;;;;;10.00;1.67;;;16.70;20.10;;;;;;6250599;28;20038;-77
2021/04/06 12:07:38;;;;;;;3.53;1.02;;;17.00;19.70;;;;;;6275331;28;20145;-77
2021/04/06 12:10:39;;;;;;;1.38;0.85;;;17.20;18.90;;;;;;6260033;28;20030;-78
2021/04/06 12:13:40;;;;;;;1.13;0.90;;;17.60;19.10;;;;;;6251584;28;20042;-77
2021/04/06 12:16:41;;;;;;;1.00;0.80;;;18.00;18.50;;;;;;6251989;28;20040;-78
2021/04/06 12:19:42;;;;;;;3.20;0.95;;;18.20;18.20;;;;;;6246075;28;20037;-77
2021/04/06 12:22:45;;;;;;;1.02;0.82;;;18.40;17.70;;;;;;6239530;28;20029;-77
2021/04/06 12:25:46;;;;;;;0.82;0.63;;;18.90;17.40;;;;;;6269556;28;20072;-77
2021/04/06 12:28:48;;;;;;;2.53;0.75;;;19.40;16.30;;;;;;6242655;28;20033;-77
2021/04/06 12:31:49;;;;;;;3.05;0.73;;;19.70;15.20;;;;;;6235221;28;20033;-78
2021/04/06 12:34:50;;;;;;;2.45;1.05;;;19.90;14.90;;;;;;6236957;28;20030;-78
2021/04/06 12:37:51;;;;;;;0.90;0.70;;;20.40;14.40;;;;;;6253596;28;20479;-77
2021/04/06 12:40:52;;;;;;;3.55;0.70;;;20.80;14.00;;;;;;6229163;28;20048;-78
2021/04/06 12:43:54;;;;;;;1.90;0.85;;;21.40;13.60;;;;;;6277176;28;20040;-78
2021/04/06 12:46:55;;;;;;;0.70;0.60;;;22.00;12.70;;;;;;6238862;28;20038;-78
2021/04/06 12:49:56;;;;;;;1.27;0.70;;;22.30;12.40;;;;;;6251253;28;20032;-77
2021/04/06 12:52:57;;;;;;;0.88;0.60;;;22.70;12.10;;;;;;6245159;28;20384;-77
2021/04/06 12:56:45;;;;;;;0.95;0.60;;;23.00;12.00;;;;;;6248327;28;20045;-79
2021/04/06 12:59:46;;;;;;;2.03;0.60;;;23.80;12.10;;;;;;6231103;28;20033;-77
2021/04/06 13:02:46;;;;;;;2.67;0.85;;;23.90;11.00;;;;;;6265959;28;20044;-78
2021/04/06 13:05:47;;;;;;;0.65;0.52;;;23.40;11.10;;;;;;6261619;28;20040;-78
2021/04/06 13:08:50;;;;;;;6.65;0.85;;;23.50;11.60;;;;;;6224604;28;20042;-78
2021/04/06 13:11:51;;;;;;;2.75;0.90;;;24.10;11.00;;;;;;6230606;28;20520;-78
2021/04/06 13:14:52;;;;;;;2.00;0.85;;;24.50;10.70;;;;;;6246100;28;20041;-79
2021/04/06 13:17:53;;;;;;;4.57;0.80;;;24.80;10.60;;;;;;6214989;28;20044;-78
2021/04/06 13:20:56;;;;;;;1.75;1.00;;;25.30;10.80;;;;;;6245665;28;20387;-78
2021/04/06 13:23:57;;;;;;;1.35;0.75;;;25.40;10.50;;;;;;6254392;28;20037;-78
2021/04/06 13:26:58;;;;;;;3.85;0.65;;;24.90;10.70;;;;;;6260884;28;20081;-78
2021/04/06 13:29:59;;;;;;;1.45;0.82;;;23.80;11.40;;;;;;6242318;28;20110;-78
2021/04/06 13:33:00;;;;;;;1.38;0.63;;;24.00;11.70;;;;;;6214386;28;20406;-77
2021/04/06 13:36:03;;;;;;;3.10;0.65;;;23.70;11.60;;;;;;6251911;28;20154;-77
2021/04/06 13:39:08;;;;;;;1.40;0.70;;;23.40;11.40;;;;;;6258474;28;20033;-79
2021/04/06 13:42:09;;;;;;;5.57;0.82;;;23.30;11.10;;;;;;6240874;28;20049;-76
2021/04/06 13:45:13;;;;;;;2.75;0.70;;;23.30;11.60;;;;;;6222015;28;20045;-77
2021/04/06 13:48:15;;;;;;;2.58;0.93;;;23.80;11.60;;;;;;6229854;28;20107;-77
2021/04/06 13:51:16;;;;;;;8.88;1.08;;;24.60;11.40;;;;;;6237756;28;20036;-78
2021/04/06 13:54:17;;;;;;;0.65;0.57;;;24.70;11.30;;;;;;6253764;28;20033;-79
2021/04/06 13:57:20;;;;;;;1.13;0.80;;;24.20;11.40;;;;;;6253860;28;20032;-77
2021/04/06 14:00:26;;;;;;;4.57;0.82;;;23.10;11.20;;;;;;6258247;28;20460;-76
2021/04/06 14:03:28;;;;;;;1.35;0.70;;;21.80;11.20;;;;;;6214625;28;20049;-78
2021/04/06 14:06:30;;;;;;;0.70;0.70;;;20.50;12.00;;;;;;6247203;28;20037;-78
2021/04/06 14:09:30;;;;;;;2.45;0.82;;;19.80;12.90;;;;;;6230428;28;20053;-78
2021/04/06 14:12:32;;;;;;;1.98;0.90;;;19.40;13.80;;;;;;6232152;28;20037;-77
2021/04/06 14:15:33;;;;;;;1.20;0.52;;;19.10;14.30;;;;;;6233681;28;20045;-79
2021/04/06 14:18:35;;;;;;;1.35;0.60;;;18.70;14.40;;;;;;6203060;28;20037;-79
2021/04/06 14:21:36;;;;;;;1.13;0.63;;;18.20;14.30;;;;;;6251363;28;20048;-77
2021/04/06 14:24:36;;;;;;;0.75;0.75;;;17.90;14.90;;;;;;6238619;28;20032;-79
2021/04/06 14:27:38;;;;;;;1.77;0.65;;;17.50;15.80;;;;;;6238827;28;20416;-79
2021/04/06 14:30:44;;;;;;;1.38;0.70;;;16.70;16.50;;;;;;6254200;28;20112;-78
2021/04/06 14:33:45;;;;;;;2.65;0.80;;;16.50;16.60;;;;;;6247497;28;20052;-78
2021/04/06 14:36:46;;;;;;;3.70;0.60;;;16.40;16.30;;;;;;6262908;28;20404;-77
2021/04/06 14:39:47;;;;;;;8.50;0.88;;;16.20;15.90;;;;;;6235190;28;20048;-79
2021/04/06 14:43:08;;;;;;;0.63;0.63;;;16.00;16.30;;;;;;6255889;28;20032;-77
2021/04/06 14:46:12;;;;;;;3.67;1.10;;;15.80;17.30;;;;;;6241033;28;20073;-78
2021/04/06 14:49:15;;;;;;;0.60;0.50;;;15.70;17.30;;;;;;6251935;28;20037;-77
2021/04/06 14:52:20;;;;;;;3.80;0.98;;;15.50;17.80;;;;;;6228185;28;20044;-77
2021/04/06 14:55:21;;;;;;;2.17;0.70;;;15.40;18.50;;;;;;6231564;28;20037;-77
2021/04/06 14:58:25;;;;;;;4.03;0.57;;;15.30;17.80;;;;;;6240487;28;20053;-76
2021/04/06 15:01:27;;;;;;;0.93;0.40;;;15.20;17.40;;;;;;6229469;28;20114;-77
2021/04/06 15:04:28;;;;;;;1.13;0.50;;;15.10;18.90;;;;;;6238771;28;20140;-79
2021/04/06 15:07:34;;;;;;;4.65;0.68;;;14.90;20.30;;;;;;6253644;28;20056;-78
2021/04/06 15:10:37;;;;;;;4.40;0.80;;;14.70;21.20;;;;;;6241005;28;20025;-77
2021/04/06 15:13:39;;;;;;;4.25;0.77;;;14.50;21.50;;;;;;6216333;28;20117;-78
2021/04/06 15:16:40;;;;;;;5.00;0.57;;;14.30;21.70;;;;;;6211618;28;20036;-77
2021/04/06 15:19:41;;;;;;;2.45;0.80;;;14.20;21.90;;;;;;6227963;28;20030;-77
2021/04/06 15:22:45;;;;;;;2.33;0.55;;;14.20;22.00;;;;;;6229047;28;20477;-76
2021/04/06 15:25:50;;;;;;;1.83;0.60;;;14.20;22.10;;;;;;6249335;28;20124;-77
2021/04/06 15:28:51;;;;;;;0.75;0.40;;;14.10;22.20;;;;;;6246549;28;20057;-77
2021/04/06 15:31:52;;;;;;;1.25;0.63;;;14.00;22.00;;;;;;6258291;28;20036;-78
2021/04/06 15:34:58;;;;;;;0.60;0.40;;;13.80;21.60;;;;;;6257444;28;20040;-78
2021/04/06 15:38:12;;;;;;;0.73;0.45;;;13.70;21.50;;;;;;6231556;28;20052;-78
2021/04/06 15:41:14;;;;;;;2.47;0.93;;;13.70;21.50;;;;;;6244149;28;20030;-78
2021/04/06 15:44:15;;;;;;;1.05;0.70;;;13.60;21.40;;;;;;6234959;28;20396;-77
2021/04/06 15:47:16;;;;;;;2.10;0.68;;;13.60;21.30;;;;;;6249182;28;20053;-78
2021/04/06 15:50:23;;;;;;;2.67;0.55;;;13.60;21.30;;;;;;6227014;28;20108;-78
2021/04/06 15:53:24;;;;;;;1.48;0.52;;;13.50;22.00;;;;;;6243922;28;20471;-78
2021/04/06 15:56:25;;;;;;;2.05;0.43;;;13.40;22.20;;;;;;6275116;28;20072;-79
2021/04/06 15:59:26;;;;;;;6.95;0.77;;;13.40;22.50;;;;;;6239357;28;20033;-77
2021/04/06 16:02:27;;;;;;;1.60;0.68;;;13.40;22.40;;;;;;6258513;28;20372;-78
2021/04/06 16:05:31;;;;;;;3.80;0.90;;;13.30;22.50;;;;;;6266910;28;20041;-78
2021/04/06 16:08:32;;;;;;;1.38;0.65;;;13.30;23.10;;;;;;6243139;28;20055;-78
2021/04/06 16:11:35;;;;;;;4.53;1.00;;;13.20;23.70;;;;;;6258600;28;20041;-78
2021/04/06 16:14:37;;;;;;;2.38;0.63;;;13.10;23.80;;;;;;6249435;28;20384;-77
2021/04/06 16:17:38;;;;;;;2.97;0.65;;;13.00;23.70;;;;;;6269645;28;20060;-79